sensor_id;sensor_type;location;lat;lon;timestamp;temperature;humidity
59075;DHT22;44860;53.020;6.738;2022-08-03T00:00:38;19.20;99.90
59075;DHT22;44860;53.020;6.738;2022-08-03T00:03:04;19.20;99.90
59075;DHT22;44860;53.020;6.738;2022-08-03T00:05:30;19.20;99.90
59075;DHT22;44860;53.020;6.738;2022-08-03T00:07:58;19.20;99.90
59075;DHT22;44860;53.020;6.738;2022-08-03T00:10:24;19.20;99.90
59075;DHT22;44860;53.020;6.738;2022-08-03T00:12:51;19.20;99.90
59075;DHT22;44860;53.020;6.738;2022-08-03T00:15:17;19.20;99.90
59075;DHT22;44860;53.020;6.738;2022-08-03T00:17:44;19.20;99.90
59075;DHT22;44860;53.020;6.738;2022-08-03T00:20:10;19.20;99.90
59075;DHT22;44860;53.020;6.738;2022-08-03T00:22:36;19.20;99.90
59075;DHT22;44860;53.020;6.738;2022-08-03T00:25:01;19.20;99.90
59075;DHT22;44860;53.020;6.738;2022-08-03T00:27:30;19.20;99.90
59075;DHT22;44860;53.020;6.738;2022-08-03T00:29:55;19.20;99.90
59075;DHT22;44860;53.020;6.738;2022-08-03T00:32:21;19.30;99.90
59075;DHT22;44860;53.020;6.738;2022-08-03T00:34:47;19.20;99.90
59075;DHT22;44860;53.020;6.738;2022-08-03T00:37:13;19.20;99.90
59075;DHT22;44860;53.020;6.738;2022-08-03T00:39:38;19.20;99.90
59075;DHT22;44860;53.020;6.738;2022-08-03T00:42:06;19.30;99.90
59075;DHT22;44860;53.020;6.738;2022-08-03T00:44:39;19.30;99.90
59075;DHT22;44860;53.020;6.738;2022-08-03T00:47:05;19.30;99.90
59075;DHT22;44860;53.020;6.738;2022-08-03T00:49:31;19.30;99.90
59075;DHT22;44860;53.020;6.738;2022-08-03T00:51:59;19.30;99.90
59075;DHT22;44860;53.020;6.738;2022-08-03T00:54:25;19.30;99.90
59075;DHT22;44860;53.020;6.738;2022-08-03T00:56:51;19.30;99.90
59075;DHT22;44860;53.020;6.738;2022-08-03T00:59:20;19.30;99.90
59075;DHT22;44860;53.020;6.738;2022-08-03T01:01:46;19.30;99.90
59075;DHT22;44860;53.020;6.738;2022-08-03T01:04:11;19.30;99.90
59075;DHT22;44860;53.020;6.738;2022-08-03T01:06:55;19.30;99.90
59075;DHT22;44860;53.020;6.738;2022-08-03T01:09:52;19.30;99.90
59075;DHT22;44860;53.020;6.738;2022-08-03T01:15:16;19.30;99.90
59075;DHT22;44860;53.020;6.738;2022-08-03T01:17:50;19.40;99.90
59075;DHT22;44860;53.020;6.738;2022-08-03T01:20:21;19.40;99.90
59075;DHT22;44860;53.020;6.738;2022-08-03T01:23:02;19.40;99.90
59075;DHT22;44860;53.020;6.738;2022-08-03T01:26:12;19.40;99.90
59075;DHT22;44860;53.020;6.738;2022-08-03T01:31:47;19.40;99.90
59075;DHT22;44860;53.020;6.738;2022-08-03T01:34:21;19.40;99.90
59075;DHT22;44860;53.020;6.738;2022-08-03T01:36:51;19.40;99.90
59075;DHT22;44860;53.020;6.738;2022-08-03T01:39:18;19.40;99.90
59075;DHT22;44860;53.020;6.738;2022-08-03T01:41:56;19.30;99.90
59075;DHT22;44860;53.020;6.738;2022-08-03T01:44:25;19.40;99.90
59075;DHT22;44860;53.020;6.738;2022-08-03T01:46:53;19.30;99.90
59075;DHT22;44860;53.020;6.738;2022-08-03T01:49:20;19.30;99.90
59075;DHT22;44860;53.020;6.738;2022-08-03T01:51:50;19.30;99.90
59075;DHT22;44860;53.020;6.738;2022-08-03T01:54:17;19.30;99.90
59075;DHT22;44860;53.020;6.738;2022-08-03T01:56:43;19.30;99.90
59075;DHT22;44860;53.020;6.738;2022-08-03T01:59:11;19.30;99.90
59075;DHT22;44860;53.020;6.738;2022-08-03T02:01:42;19.30;99.90
59075;DHT22;44860;53.020;6.738;2022-08-03T02:04:13;19.30;99.90
59075;DHT22;44860;53.020;6.738;2022-08-03T02:06:39;19.20;99.90
59075;DHT22;44860;53.020;6.738;2022-08-03T02:09:06;19.20;99.90
59075;DHT22;44860;53.020;6.738;2022-08-03T02:11:33;19.20;99.90
59075;DHT22;44860;53.020;6.738;2022-08-03T02:14:01;19.10;99.90
59075;DHT22;44860;53.020;6.738;2022-08-03T02:16:30;19.10;99.90
59075;DHT22;44860;53.020;6.738;2022-08-03T02:18:58;19.10;99.90
59075;DHT22;44860;53.020;6.738;2022-08-03T02:21:31;19.00;99.90
59075;DHT22;44860;53.020;6.738;2022-08-03T02:23:58;19.00;99.90
59075;DHT22;44860;53.020;6.738;2022-08-03T02:26:27;19.00;99.90
59075;DHT22;44860;53.020;6.738;2022-08-03T02:28:55;19.00;99.90
59075;DHT22;44860;53.020;6.738;2022-08-03T02:31:24;19.00;99.90
59075;DHT22;44860;53.020;6.738;2022-08-03T02:33:53;18.90;99.90
59075;DHT22;44860;53.020;6.738;2022-08-03T02:36:29;18.90;99.90
59075;DHT22;44860;53.020;6.738;2022-08-03T02:38:58;18.90;99.90
59075;DHT22;44860;53.020;6.738;2022-08-03T02:41:31;18.90;99.90
59075;DHT22;44860;53.020;6.738;2022-08-03T02:44:02;18.90;99.90
59075;DHT22;44860;53.020;6.738;2022-08-03T02:46:34;19.00;99.90
59075;DHT22;44860;53.020;6.738;2022-08-03T02:49:01;19.00;99.90
59075;DHT22;44860;53.020;6.738;2022-08-03T02:51:31;18.90;99.90
59075;DHT22;44860;53.020;6.738;2022-08-03T02:53:59;18.90;99.90
59075;DHT22;44860;53.020;6.738;2022-08-03T02:56:27;18.90;99.90
59075;DHT22;44860;53.020;6.738;2022-08-03T02:58:55;18.90;99.90
59075;DHT22;44860;53.020;6.738;2022-08-03T03:01:26;18.80;99.90
59075;DHT22;44860;53.020;6.738;2022-08-03T03:03:54;18.80;99.90
59075;DHT22;44860;53.020;6.738;2022-08-03T03:06:20;18.80;99.90
59075;DHT22;44860;53.020;6.738;2022-08-03T03:08:47;18.80;99.90
59075;DHT22;44860;53.020;6.738;2022-08-03T03:11:14;18.80;99.90
59075;DHT22;44860;53.020;6.738;2022-08-03T03:13:42;18.80;99.90
59075;DHT22;44860;53.020;6.738;2022-08-03T03:16:11;18.80;99.90
59075;DHT22;44860;53.020;6.738;2022-08-03T03:18:39;18.70;99.90
59075;DHT22;44860;53.020;6.738;2022-08-03T03:21:07;18.70;99.90
59075;DHT22;44860;53.020;6.738;2022-08-03T03:23:36;18.70;99.90
59075;DHT22;44860;53.020;6.738;2022-08-03T03:26:04;18.70;99.90
59075;DHT22;44860;53.020;6.738;2022-08-03T03:28:30;18.70;99.90
59075;DHT22;44860;53.020;6.738;2022-08-03T03:30:57;18.70;99.90
59075;DHT22;44860;53.020;6.738;2022-08-03T03:33:23;18.60;99.90
59075;DHT22;44860;53.020;6.738;2022-08-03T03:35:49;18.60;99.90
59075;DHT22;44860;53.020;6.738;2022-08-03T03:38:16;18.60;99.90
59075;DHT22;44860;53.020;6.738;2022-08-03T03:40:42;18.60;99.90
59075;DHT22;44860;53.020;6.738;2022-08-03T03:43:10;18.60;99.90
59075;DHT22;44860;53.020;6.738;2022-08-03T03:45:36;18.50;99.90
59075;DHT22;44860;53.020;6.738;2022-08-03T03:48:06;18.50;99.90
59075;DHT22;44860;53.020;6.738;2022-08-03T03:50:32;18.50;99.90
59075;DHT22;44860;53.020;6.738;2022-08-03T03:52:58;18.50;99.90
59075;DHT22;44860;53.020;6.738;2022-08-03T03:55:24;18.50;99.90
59075;DHT22;44860;53.020;6.738;2022-08-03T03:57:50;18.50;99.90
59075;DHT22;44860;53.020;6.738;2022-08-03T04:00:17;18.50;99.90
59075;DHT22;44860;53.020;6.738;2022-08-03T04:02:46;18.50;99.90
59075;DHT22;44860;53.020;6.738;2022-08-03T04:05:12;18.40;99.90
59075;DHT22;44860;53.020;6.738;2022-08-03T04:08:02;18.40;99.90
59075;DHT22;44860;53.020;6.738;2022-08-03T04:14:07;18.40;99.90
59075;DHT22;44860;53.020;6.738;2022-08-03T04:16:36;18.40;99.90
59075;DHT22;44860;53.020;6.738;2022-08-03T04:19:09;18.40;99.90
59075;DHT22;44860;53.020;6.738;2022-08-03T04:21:40;18.50;99.90
59075;DHT22;44860;53.020;6.738;2022-08-03T04:24:08;18.50;99.90
59075;DHT22;44860;53.020;6.738;2022-08-03T04:26:39;18.50;99.90
59075;DHT22;44860;53.020;6.738;2022-08-03T04:29:06;18.40;99.90
59075;DHT22;44860;53.020;6.738;2022-08-03T04:31:33;18.50;99.90
59075;DHT22;44860;53.020;6.738;2022-08-03T04:33:59;18.50;99.90
59075;DHT22;44860;53.020;6.738;2022-08-03T04:36:27;18.50;99.90
59075;DHT22;44860;53.020;6.738;2022-08-03T04:39:05;18.50;99.90
59075;DHT22;44860;53.020;6.738;2022-08-03T04:41:33;18.50;99.90
59075;DHT22;44860;53.020;6.738;2022-08-03T04:44:01;18.50;99.90
59075;DHT22;44860;53.020;6.738;2022-08-03T04:46:37;18.50;99.90
59075;DHT22;44860;53.020;6.738;2022-08-03T04:49:05;18.50;99.90
59075;DHT22;44860;53.020;6.738;2022-08-03T04:51:31;18.50;99.90
59075;DHT22;44860;53.020;6.738;2022-08-03T04:53:59;18.50;99.90
59075;DHT22;44860;53.020;6.738;2022-08-03T04:56:25;18.50;99.90
59075;DHT22;44860;53.020;6.738;2022-08-03T04:58:51;18.50;99.90
59075;DHT22;44860;53.020;6.738;2022-08-03T05:01:18;18.50;99.90
59075;DHT22;44860;53.020;6.738;2022-08-03T05:03:45;18.50;99.90
59075;DHT22;44860;53.020;6.738;2022-08-03T05:06:11;18.50;99.90
59075;DHT22;44860;53.020;6.738;2022-08-03T05:08:37;18.50;99.90
59075;DHT22;44860;53.020;6.738;2022-08-03T05:11:03;18.60;99.90
59075;DHT22;44860;53.020;6.738;2022-08-03T05:13:29;18.60;99.90
59075;DHT22;44860;53.020;6.738;2022-08-03T05:15:57;18.70;99.90
59075;DHT22;44860;53.020;6.738;2022-08-03T05:18:23;18.70;99.90
59075;DHT22;44860;53.020;6.738;2022-08-03T05:20:49;18.70;99.90
59075;DHT22;44860;53.020;6.738;2022-08-03T05:23:14;18.80;99.90
59075;DHT22;44860;53.020;6.738;2022-08-03T05:25:40;18.80;99.90
59075;DHT22;44860;53.020;6.738;2022-08-03T05:28:06;18.80;99.90
59075;DHT22;44860;53.020;6.738;2022-08-03T05:30:33;18.80;99.90
59075;DHT22;44860;53.020;6.738;2022-08-03T05:32:58;18.90;99.90
59075;DHT22;44860;53.020;6.738;2022-08-03T05:35:24;18.90;99.90
59075;DHT22;44860;53.020;6.738;2022-08-03T05:37:50;19.00;99.90
59075;DHT22;44860;53.020;6.738;2022-08-03T05:40:16;19.00;99.90
59075;DHT22;44860;53.020;6.738;2022-08-03T05:42:42;19.10;99.90
59075;DHT22;44860;53.020;6.738;2022-08-03T05:45:08;19.10;99.90
59075;DHT22;44860;53.020;6.738;2022-08-03T05:47:46;19.10;99.90
59075;DHT22;44860;53.020;6.738;2022-08-03T05:50:13;19.20;99.90
59075;DHT22;44860;53.020;6.738;2022-08-03T05:52:40;19.30;99.90
59075;DHT22;44860;53.020;6.738;2022-08-03T05:55:06;19.30;99.90
59075;DHT22;44860;53.020;6.738;2022-08-03T05:57:32;19.30;99.90
59075;DHT22;44860;53.020;6.738;2022-08-03T06:00:04;19.40;99.90
59075;DHT22;44860;53.020;6.738;2022-08-03T06:02:30;19.40;99.90
59075;DHT22;44860;53.020;6.738;2022-08-03T06:04:56;19.40;99.90
59075;DHT22;44860;53.020;6.738;2022-08-03T06:07:22;19.50;99.90
59075;DHT22;44860;53.020;6.738;2022-08-03T06:09:47;19.50;99.90
59075;DHT22;44860;53.020;6.738;2022-08-03T06:12:13;19.60;99.90
59075;DHT22;44860;53.020;6.738;2022-08-03T06:14:42;19.60;99.90
59075;DHT22;44860;53.020;6.738;2022-08-03T06:17:08;19.70;99.90
59075;DHT22;44860;53.020;6.738;2022-08-03T06:19:33;19.70;99.90
59075;DHT22;44860;53.020;6.738;2022-08-03T06:21:59;19.80;99.90
59075;DHT22;44860;53.020;6.738;2022-08-03T06:24:27;19.80;99.90
59075;DHT22;44860;53.020;6.738;2022-08-03T06:26:53;19.90;99.90
59075;DHT22;44860;53.020;6.738;2022-08-03T06:29:19;19.90;99.90
59075;DHT22;44860;53.020;6.738;2022-08-03T06:31:45;20.00;99.90
59075;DHT22;44860;53.020;6.738;2022-08-03T06:34:11;20.00;99.90
59075;DHT22;44860;53.020;6.738;2022-08-03T06:36:39;20.00;99.90
59075;DHT22;44860;53.020;6.738;2022-08-03T06:39:06;20.10;99.90
59075;DHT22;44860;53.020;6.738;2022-08-03T06:41:32;20.20;99.90
59075;DHT22;44860;53.020;6.738;2022-08-03T06:43:58;20.20;99.90
59075;DHT22;44860;53.020;6.738;2022-08-03T06:46:24;20.30;99.90
59075;DHT22;44860;53.020;6.738;2022-08-03T06:48:49;20.30;99.90
59075;DHT22;44860;53.020;6.738;2022-08-03T06:51:15;20.40;99.90
59075;DHT22;44860;53.020;6.738;2022-08-03T06:53:41;20.40;99.90
59075;DHT22;44860;53.020;6.738;2022-08-03T06:56:07;20.40;99.90
59075;DHT22;44860;53.020;6.738;2022-08-03T06:58:33;20.50;99.90
59075;DHT22;44860;53.020;6.738;2022-08-03T07:00:59;20.60;99.90
59075;DHT22;44860;53.020;6.738;2022-08-03T07:03:25;20.60;99.90
59075;DHT22;44860;53.020;6.738;2022-08-03T07:05:50;20.70;99.90
59075;DHT22;44860;53.020;6.738;2022-08-03T07:08:17;20.70;99.90
59075;DHT22;44860;53.020;6.738;2022-08-03T07:10:46;20.70;99.90
59075;DHT22;44860;53.020;6.738;2022-08-03T07:13:11;20.80;99.90
59075;DHT22;44860;53.020;6.738;2022-08-03T07:15:38;20.80;99.90
59075;DHT22;44860;53.020;6.738;2022-08-03T07:18:04;20.80;99.90
59075;DHT22;44860;53.020;6.738;2022-08-03T07:20:29;20.90;99.90
59075;DHT22;44860;53.020;6.738;2022-08-03T07:22:55;20.90;99.90
59075;DHT22;44860;53.020;6.738;2022-08-03T07:25:21;21.00;99.90
59075;DHT22;44860;53.020;6.738;2022-08-03T07:27:47;21.00;99.90
59075;DHT22;44860;53.020;6.738;2022-08-03T07:30:13;21.10;99.90
59075;DHT22;44860;53.020;6.738;2022-08-03T07:32:40;21.20;99.90
59075;DHT22;44860;53.020;6.738;2022-08-03T07:35:07;21.20;99.90
59075;DHT22;44860;53.020;6.738;2022-08-03T07:37:34;21.30;99.90
59075;DHT22;44860;53.020;6.738;2022-08-03T07:40:02;21.30;99.90
59075;DHT22;44860;53.020;6.738;2022-08-03T07:42:29;21.40;99.90
59075;DHT22;44860;53.020;6.738;2022-08-03T07:44:55;21.40;99.90
59075;DHT22;44860;53.020;6.738;2022-08-03T07:47:24;21.50;99.90
59075;DHT22;44860;53.020;6.738;2022-08-03T07:49:50;21.50;99.90
59075;DHT22;44860;53.020;6.738;2022-08-03T07:52:16;21.50;99.90
59075;DHT22;44860;53.020;6.738;2022-08-03T07:55:00;21.60;99.90
59075;DHT22;44860;53.020;6.738;2022-08-03T07:57:26;21.70;99.90
59075;DHT22;44860;53.020;6.738;2022-08-03T07:59:51;21.80;99.90
59075;DHT22;44860;53.020;6.738;2022-08-03T08:02:17;21.80;99.90
59075;DHT22;44860;53.020;6.738;2022-08-03T08:04:42;22.00;99.90
59075;DHT22;44860;53.020;6.738;2022-08-03T08:07:08;22.00;99.90
59075;DHT22;44860;53.020;6.738;2022-08-03T08:09:34;22.10;99.90
59075;DHT22;44860;53.020;6.738;2022-08-03T08:12:00;22.10;99.90
59075;DHT22;44860;53.020;6.738;2022-08-03T08:14:25;22.20;99.90
59075;DHT22;44860;53.020;6.738;2022-08-03T08:16:51;22.20;99.90
59075;DHT22;44860;53.020;6.738;2022-08-03T08:19:17;22.30;99.90
59075;DHT22;44860;53.020;6.738;2022-08-03T08:21:43;22.40;99.90
59075;DHT22;44860;53.020;6.738;2022-08-03T08:24:09;22.50;99.90
59075;DHT22;44860;53.020;6.738;2022-08-03T08:26:35;22.60;99.90
59075;DHT22;44860;53.020;6.738;2022-08-03T08:29:01;22.70;99.90
59075;DHT22;44860;53.020;6.738;2022-08-03T08:31:29;22.70;99.90
59075;DHT22;44860;53.020;6.738;2022-08-03T08:33:55;22.70;99.90
59075;DHT22;44860;53.020;6.738;2022-08-03T08:36:21;22.70;99.90
59075;DHT22;44860;53.020;6.738;2022-08-03T08:38:46;22.80;99.90
59075;DHT22;44860;53.020;6.738;2022-08-03T08:41:13;22.90;99.90
59075;DHT22;44860;53.020;6.738;2022-08-03T08:43:40;22.90;99.90
59075;DHT22;44860;53.020;6.738;2022-08-03T08:46:07;22.90;99.90
59075;DHT22;44860;53.020;6.738;2022-08-03T08:48:34;23.00;99.90
59075;DHT22;44860;53.020;6.738;2022-08-03T08:51:01;23.10;99.90
59075;DHT22;44860;53.020;6.738;2022-08-03T08:53:28;23.10;99.90
59075;DHT22;44860;53.020;6.738;2022-08-03T08:55:58;23.20;99.90
59075;DHT22;44860;53.020;6.738;2022-08-03T08:58:27;23.20;99.90
59075;DHT22;44860;53.020;6.738;2022-08-03T09:00:53;23.30;99.90
59075;DHT22;44860;53.020;6.738;2022-08-03T09:03:19;23.40;99.90
59075;DHT22;44860;53.020;6.738;2022-08-03T09:05:45;23.50;99.90
59075;DHT22;44860;53.020;6.738;2022-08-03T09:08:11;23.60;99.90
59075;DHT22;44860;53.020;6.738;2022-08-03T09:10:37;23.70;99.90
59075;DHT22;44860;53.020;6.738;2022-08-03T09:13:03;23.80;99.90
59075;DHT22;44860;53.020;6.738;2022-08-03T09:15:31;23.80;99.90
59075;DHT22;44860;53.020;6.738;2022-08-03T09:17:59;23.90;99.90
59075;DHT22;44860;53.020;6.738;2022-08-03T09:20:27;23.80;99.90
59075;DHT22;44860;53.020;6.738;2022-08-03T09:25:24;24.00;99.90
59075;DHT22;44860;53.020;6.738;2022-08-03T09:27:50;24.10;99.90
59075;DHT22;44860;53.020;6.738;2022-08-03T09:30:17;24.20;99.90
59075;DHT22;44860;53.020;6.738;2022-08-03T09:32:44;24.20;99.90
59075;DHT22;44860;53.020;6.738;2022-08-03T09:35:12;24.30;99.90
59075;DHT22;44860;53.020;6.738;2022-08-03T09:37:39;24.40;99.90
59075;DHT22;44860;53.020;6.738;2022-08-03T09:40:05;24.40;99.90
59075;DHT22;44860;53.020;6.738;2022-08-03T09:42:31;24.50;99.90
59075;DHT22;44860;53.020;6.738;2022-08-03T09:45:02;24.60;99.90
59075;DHT22;44860;53.020;6.738;2022-08-03T09:47:30;24.70;99.90
59075;DHT22;44860;53.020;6.738;2022-08-03T09:50:02;24.70;99.90
59075;DHT22;44860;53.020;6.738;2022-08-03T09:52:35;24.90;99.90
59075;DHT22;44860;53.020;6.738;2022-08-03T09:55:13;24.90;99.90
59075;DHT22;44860;53.020;6.738;2022-08-03T09:57:43;25.00;99.90
59075;DHT22;44860;53.020;6.738;2022-08-03T10:00:15;25.10;99.90
59075;DHT22;44860;53.020;6.738;2022-08-03T10:02:42;25.10;99.90
59075;DHT22;44860;53.020;6.738;2022-08-03T10:05:10;25.20;99.90
59075;DHT22;44860;53.020;6.738;2022-08-03T10:07:44;25.30;99.90
59075;DHT22;44860;53.020;6.738;2022-08-03T10:10:13;25.40;99.90
59075;DHT22;44860;53.020;6.738;2022-08-03T10:12:41;25.50;99.90
59075;DHT22;44860;53.020;6.738;2022-08-03T10:15:08;25.50;99.90
59075;DHT22;44860;53.020;6.738;2022-08-03T10:17:35;25.50;99.90
59075;DHT22;44860;53.020;6.738;2022-08-03T10:20:03;25.50;99.90
59075;DHT22;44860;53.020;6.738;2022-08-03T10:22:34;25.60;99.90
59075;DHT22;44860;53.020;6.738;2022-08-03T10:25:07;25.70;99.90
59075;DHT22;44860;53.020;6.738;2022-08-03T10:27:37;25.70;99.90
59075;DHT22;44860;53.020;6.738;2022-08-03T10:30:08;25.80;99.90
59075;DHT22;44860;53.020;6.738;2022-08-03T10:32:43;25.90;99.90
59075;DHT22;44860;53.020;6.738;2022-08-03T10:35:15;26.00;99.90
59075;DHT22;44860;53.020;6.738;2022-08-03T10:38:05;26.10;99.90
59075;DHT22;44860;53.020;6.738;2022-08-03T10:40:33;26.20;99.90
59075;DHT22;44860;53.020;6.738;2022-08-03T10:43:09;26.20;99.90
59075;DHT22;44860;53.020;6.738;2022-08-03T10:45:40;26.40;99.90
59075;DHT22;44860;53.020;6.738;2022-08-03T10:48:07;26.40;99.90
59075;DHT22;44860;53.020;6.738;2022-08-03T10:50:33;26.40;99.90
59075;DHT22;44860;53.020;6.738;2022-08-03T10:53:04;26.50;99.90
59075;DHT22;44860;53.020;6.738;2022-08-03T10:55:42;26.60;99.90
59075;DHT22;44860;53.020;6.738;2022-08-03T10:58:45;26.60;99.90
59075;DHT22;44860;53.020;6.738;2022-08-03T11:01:14;26.70;99.90
59075;DHT22;44860;53.020;6.738;2022-08-03T11:06:25;26.90;99.90
59075;DHT22;44860;53.020;6.738;2022-08-03T11:09:17;27.00;99.90
59075;DHT22;44860;53.020;6.738;2022-08-03T11:11:45;27.10;99.90
59075;DHT22;44860;53.020;6.738;2022-08-03T11:14:12;27.10;99.90
59075;DHT22;44860;53.020;6.738;2022-08-03T11:16:42;27.10;99.90
59075;DHT22;44860;53.020;6.738;2022-08-03T11:19:15;27.10;99.90
59075;DHT22;44860;53.020;6.738;2022-08-03T11:43:07;27.70;92.60
59075;DHT22;44860;53.020;6.738;2022-08-03T11:45:36;27.80;92.80
59075;DHT22;44860;53.020;6.738;2022-08-03T11:48:15;28.00;87.70
59075;DHT22;44860;53.020;6.738;2022-08-03T11:50:44;28.10;84.40
59075;DHT22;44860;53.020;6.738;2022-08-03T11:53:15;28.10;81.10
59075;DHT22;44860;53.020;6.738;2022-08-03T11:55:42;28.20;82.20
59075;DHT22;44860;53.020;6.738;2022-08-03T11:58:18;28.20;80.40
59075;DHT22;44860;53.020;6.738;2022-08-03T12:00:44;28.20;80.40
59075;DHT22;44860;53.020;6.738;2022-08-03T12:03:13;28.20;81.70
59075;DHT22;44860;53.020;6.738;2022-08-03T12:08:15;28.30;76.80
59075;DHT22;44860;53.020;6.738;2022-08-03T12:10:48;28.30;74.40
59075;DHT22;44860;53.020;6.738;2022-08-03T12:13:15;28.30;73.20
59075;DHT22;44860;53.020;6.738;2022-08-03T12:15:42;28.30;72.20
59075;DHT22;44860;53.020;6.738;2022-08-03T12:18:16;28.40;69.80
59075;DHT22;44860;53.020;6.738;2022-08-03T12:20:43;28.40;70.40
59075;DHT22;44860;53.020;6.738;2022-08-03T12:23:09;28.40;74.00
59075;DHT22;44860;53.020;6.738;2022-08-03T12:25:36;28.50;70.70
59075;DHT22;44860;53.020;6.738;2022-08-03T12:28:17;28.60;69.70
59075;DHT22;44860;53.020;6.738;2022-08-03T12:30:51;28.60;67.60
59075;DHT22;44860;53.020;6.738;2022-08-03T12:33:25;28.60;64.90
59075;DHT22;44860;53.020;6.738;2022-08-03T12:36:08;28.60;65.30
59075;DHT22;44860;53.020;6.738;2022-08-03T12:38:36;28.60;64.30
59075;DHT22;44860;53.020;6.738;2022-08-03T12:41:05;28.60;61.20
59075;DHT22;44860;53.020;6.738;2022-08-03T12:43:31;28.70;58.80
59075;DHT22;44860;53.020;6.738;2022-08-03T12:46:12;28.80;59.30
59075;DHT22;44860;53.020;6.738;2022-08-03T12:51:30;29.00;60.90
59075;DHT22;44860;53.020;6.738;2022-08-03T12:53:56;29.00;56.90
59075;DHT22;44860;53.020;6.738;2022-08-03T12:56:23;29.10;54.00
59075;DHT22;44860;53.020;6.738;2022-08-03T12:58:49;29.20;52.90
59075;DHT22;44860;53.020;6.738;2022-08-03T13:01:15;29.20;53.70
59075;DHT22;44860;53.020;6.738;2022-08-03T13:03:42;29.30;53.30
59075;DHT22;44860;53.020;6.738;2022-08-03T13:06:20;29.40;54.50
59075;DHT22;44860;53.020;6.738;2022-08-03T13:08:46;29.50;51.50
59075;DHT22;44860;53.020;6.738;2022-08-03T13:11:26;29.50;48.80
59075;DHT22;44860;53.020;6.738;2022-08-03T13:13:53;29.60;49.00
59075;DHT22;44860;53.020;6.738;2022-08-03T13:16:20;29.60;45.70
59075;DHT22;44860;53.020;6.738;2022-08-03T13:18:47;29.70;45.60
59075;DHT22;44860;53.020;6.738;2022-08-03T13:21:18;29.80;44.00
59075;DHT22;44860;53.020;6.738;2022-08-03T13:23:45;29.80;44.30
59075;DHT22;44860;53.020;6.738;2022-08-03T13:26:11;29.80;42.30
59075;DHT22;44860;53.020;6.738;2022-08-03T13:28:40;29.90;41.40
59075;DHT22;44860;53.020;6.738;2022-08-03T13:31:06;30.00;40.60
59075;DHT22;44860;53.020;6.738;2022-08-03T13:33:31;30.00;40.80
59075;DHT22;44860;53.020;6.738;2022-08-03T13:35:58;30.00;41.80
59075;DHT22;44860;53.020;6.738;2022-08-03T13:38:23;30.10;38.50
59075;DHT22;44860;53.020;6.738;2022-08-03T13:40:51;30.00;37.30
59075;DHT22;44860;53.020;6.738;2022-08-03T13:43:18;30.10;37.50
59075;DHT22;44860;53.020;6.738;2022-08-03T13:45:44;30.10;38.50
59075;DHT22;44860;53.020;6.738;2022-08-03T13:48:10;30.10;38.20
59075;DHT22;44860;53.020;6.738;2022-08-03T13:50:35;30.10;39.20
59075;DHT22;44860;53.020;6.738;2022-08-03T13:53:01;30.10;39.20
59075;DHT22;44860;53.020;6.738;2022-08-03T13:55:27;30.10;39.00
59075;DHT22;44860;53.020;6.738;2022-08-03T13:57:52;30.10;39.40
59075;DHT22;44860;53.020;6.738;2022-08-03T14:00:18;30.10;39.10
59075;DHT22;44860;53.020;6.738;2022-08-03T14:02:48;30.10;39.70
59075;DHT22;44860;53.020;6.738;2022-08-03T14:05:14;30.00;39.40
59075;DHT22;44860;53.020;6.738;2022-08-03T14:07:39;30.00;39.20
59075;DHT22;44860;53.020;6.738;2022-08-03T14:10:08;30.00;40.40
59075;DHT22;44860;53.020;6.738;2022-08-03T14:12:34;30.00;41.00
59075;DHT22;44860;53.020;6.738;2022-08-03T14:15:01;30.00;41.10
59075;DHT22;44860;53.020;6.738;2022-08-03T14:17:27;30.00;41.60
59075;DHT22;44860;53.020;6.738;2022-08-03T14:19:52;30.00;41.10
59075;DHT22;44860;53.020;6.738;2022-08-03T14:22:21;30.00;41.20
59075;DHT22;44860;53.020;6.738;2022-08-03T14:24:47;30.00;41.20
59075;DHT22;44860;53.020;6.738;2022-08-03T14:27:12;30.10;40.80
59075;DHT22;44860;53.020;6.738;2022-08-03T14:29:38;30.10;41.50
59075;DHT22;44860;53.020;6.738;2022-08-03T14:32:04;30.10;41.90
59075;DHT22;44860;53.020;6.738;2022-08-03T14:34:30;30.10;41.70
59075;DHT22;44860;53.020;6.738;2022-08-03T14:36:55;30.20;42.80
59075;DHT22;44860;53.020;6.738;2022-08-03T14:39:21;30.10;41.50
59075;DHT22;44860;53.020;6.738;2022-08-03T14:41:50;30.10;40.70
59075;DHT22;44860;53.020;6.738;2022-08-03T14:44:15;30.00;40.90
59075;DHT22;44860;53.020;6.738;2022-08-03T14:46:41;30.00;40.70
59075;DHT22;44860;53.020;6.738;2022-08-03T14:49:07;30.00;40.90
59075;DHT22;44860;53.020;6.738;2022-08-03T14:51:32;30.10;41.60
59075;DHT22;44860;53.020;6.738;2022-08-03T14:53:58;30.20;41.10
59075;DHT22;44860;53.020;6.738;2022-08-03T14:56:23;30.20;41.00
59075;DHT22;44860;53.020;6.738;2022-08-03T14:58:49;30.20;40.40
59075;DHT22;44860;53.020;6.738;2022-08-03T15:01:15;30.30;39.60
59075;DHT22;44860;53.020;6.738;2022-08-03T15:03:40;30.30;39.10
59075;DHT22;44860;53.020;6.738;2022-08-03T15:06:06;30.20;38.50
59075;DHT22;44860;53.020;6.738;2022-08-03T15:08:32;30.30;38.80
59075;DHT22;44860;53.020;6.738;2022-08-03T15:10:57;30.30;38.40
59075;DHT22;44860;53.020;6.738;2022-08-03T15:13:23;30.20;38.30
59075;DHT22;44860;53.020;6.738;2022-08-03T15:15:49;30.20;37.80
59075;DHT22;44860;53.020;6.738;2022-08-03T15:18:16;30.20;37.40
59075;DHT22;44860;53.020;6.738;2022-08-03T15:20:42;30.20;37.00
59075;DHT22;44860;53.020;6.738;2022-08-03T15:23:08;30.20;36.50
59075;DHT22;44860;53.020;6.738;2022-08-03T15:25:34;30.20;35.90
59075;DHT22;44860;53.020;6.738;2022-08-03T15:27:59;30.20;35.90
59075;DHT22;44860;53.020;6.738;2022-08-03T15:30:25;30.20;36.00
59075;DHT22;44860;53.020;6.738;2022-08-03T15:32:50;30.10;35.40
59075;DHT22;44860;53.020;6.738;2022-08-03T15:35:16;30.10;35.30
59075;DHT22;44860;53.020;6.738;2022-08-03T15:37:42;30.10;35.80
59075;DHT22;44860;53.020;6.738;2022-08-03T15:40:11;30.10;35.90
59075;DHT22;44860;53.020;6.738;2022-08-03T15:42:36;30.10;35.60
59075;DHT22;44860;53.020;6.738;2022-08-03T15:45:02;30.10;35.10
59075;DHT22;44860;53.020;6.738;2022-08-03T15:47:30;30.10;35.80
59075;DHT22;44860;53.020;6.738;2022-08-03T15:49:58;30.20;36.00
59075;DHT22;44860;53.020;6.738;2022-08-03T15:52:24;30.20;35.40
59075;DHT22;44860;53.020;6.738;2022-08-03T15:54:49;30.20;36.40
59075;DHT22;44860;53.020;6.738;2022-08-03T15:57:15;30.20;35.80
59075;DHT22;44860;53.020;6.738;2022-08-03T15:59:41;30.20;36.30
59075;DHT22;44860;53.020;6.738;2022-08-03T16:02:12;30.20;36.20
59075;DHT22;44860;53.020;6.738;2022-08-03T16:04:37;30.20;35.80
59075;DHT22;44860;53.020;6.738;2022-08-03T16:07:03;30.10;36.10
59075;DHT22;44860;53.020;6.738;2022-08-03T16:09:29;30.10;36.70
59075;DHT22;44860;53.020;6.738;2022-08-03T16:11:54;30.20;37.20
59075;DHT22;44860;53.020;6.738;2022-08-03T16:14:20;30.10;36.90
59075;DHT22;44860;53.020;6.738;2022-08-03T16:16:46;30.10;37.40